• Join FlightAware (Why Join?)
  • Login
  • US Flag 
09:38AM EDT


 

Airport Tracker/Info


-or-


 

Live Flight TrackerFlight Track Log ✈ SCX8700 ✈ 17-Feb-2014 ✈ KMIA - KPGD

Flight Track Log - Related Links

Times and Time Zones

All times are in EST time to prevent confusion due to time zone crossing. See the SCX8700 flight status page for this flight to view local times or setup timezone preferences in your user account.

Time Position Orientation Groundspeed Altitude Reporting Facility
EST Latitude Longitude Course Direction KTS MPH feet Rate Location/Type
05:09PM 25.7981 -80.2744 79° East 150 173 900  Level Miami Center
05:10PM 25.8031 -80.2469 79° East 166 191 2,200 2,700 Climbing Miami Center
05:11PM 25.8253 -80.1875 67° East 257 296 5,100 3,600 Climbing Miami Center
05:12PM 25.8886 -80.2517 318° Northwest 301 346 10,000 3,780 Climbing Miami Center
05:12PM 25.8947 -80.2542 340° North 280 322 9,800 2,700 Descending Miami Center
05:13PM 25.9389 -80.3339 302° West 352 405 12,800 2,700 Climbing Miami Center
05:13PM 25.9450 -80.3386 325° Northwest 343 395 12,500 3,120 Descending Miami Center
05:14PM 25.9972 -80.4211 305° West 352 405 16,000 3,360 Climbing Miami Center
05:14PM 26.0033 -80.4258 325° Northwest 349 402 15,900 -120 Descending Miami Center
05:15PM 26.0578 -80.5086 306° West 374 430 15,900 540 Level Miami Center
05:16PM 26.1142 -80.5958 306° West 369 425 17,000 960 Climbing Miami Center
05:17PM 26.1683 -80.6808 305° West 363 418 17,900  Climbing Miami Center
05:18PM 26.2206 -80.7611 306° West 343 395 17,000 -1,740 Descending Miami Center
05:19PM 26.2872 -80.8422 313° West 320 368 14,500 -3,240 Descending Miami Center
05:20PM 26.3481 -80.9044 317° Northwest 327 376 10,600 -3,300 Descending Miami Center
05:21PM 26.4211 -80.9836 316° Northwest 336 387 8,000 -1,320 Descending Miami Center
05:22PM 26.4567 -81.0544 299° West 306 352 8,000  Level Miami Center
05:23PM 26.4961 -81.1300 300° West 285 328 8,000  Level Miami Center
05:24PM 26.5336 -81.2056 299° West 277 319 8,000 -300 Level Miami Center
05:25PM 26.5711 -81.2814 299° West 282 325 7,400 -960 Descending Miami Center
05:26PM 26.6064 -81.3547 298° West 277 319 6,100 -1,440 Descending Miami Center
05:27PM 26.6417 -81.4256 299° West 272 313 4,600 -1,560 Descending Miami Center
05:28PM 26.6789 -81.5061 297° West 272 313 3,000 -840 Descending Miami Center
05:29PM 26.7164 -81.5750 301° West 272 313 3,000  Level Miami Center
05:30PM 26.7494 -81.6439 298° West 267 307 3,000  Level Miami Center
05:32PM 26.7960 -81.7524 307° West  Level FlightAware Approximate
05:39PM 26.9167 -81.9833 304° West  Level FlightAware Approximate
05:40PM 26.9189 -81.9909 304° West  Level Estimated
05:41PM 26.9167 -81.9833 304° West  Level FlightAware Approximate
05:42PM 26.9189 -81.9909 304° West  Level Estimated